Time;durP1;ratioP1;P1;durP2;ratioP2;P2;SDS_P1;SDS_P2;PMS_P1;PMS_P2;Temp;Humidity;BMP_temperature;BMP_pressure;BME280_temperature;BME280_humidity;BME280_pressure;Samples;Min_cycle;Max_cycle;Signal;HPM_P1;HPM_P2
2023/11/04 00:01:20;;;;;;;;;;;;;;;;;;5131935;28;19915;-71
2023/11/04 00:03:46;;;;;;;;;;;;;;;;;;5131315;28;20320;-72
2023/11/04 00:08:09;;;;;;;;;;;;;;;;;;5091638;27;19916;-72
2023/11/04 00:11:34;;;;;;;;;;;;;;;;;;5091953;28;19912;-72
2023/11/04 00:16:20;;;;;;;;;;;;;;;;;;5152721;27;19911;-72
2023/11/04 00:18:46;;;;;;;;;;;;;;;;;;5152914;27;19911;-72
2023/11/04 00:21:12;;;;;;;;;;;;;;;;;;5153106;27;20290;-72
2023/11/04 00:23:38;;;;;;;;;;;;;;;;;;5152546;27;19918;-73
2023/11/04 00:26:04;;;;;;;;;;;;;;;;;;5134253;27;19915;-73
2023/11/04 00:29:54;;;;;;;;;;;;;;;;;;5091343;28;19923;-72
2023/11/04 00:34:15;;;;;;;;;;;;;;;;;;5092173;27;19916;-72
2023/11/04 00:36:41;;;;;;;;;;;;;;;;;;5089615;28;20324;-72
2023/11/04 00:39:09;;;;;;;;;;;;;;;;;;5091525;28;19948;-72
2023/11/04 00:41:35;;;;;;;;;;;;;;;;;;5091611;28;19912;-72
2023/11/04 00:44:01;;;;;;;;;;;;;;;;;;5090889;28;19908;-72
2023/11/04 00:46:27;;;;;;;;;;;;;;;;;;5091224;28;20279;-72
2023/11/04 00:51:00;;;;;;;;;;;;;;;;;;5111665;27;19912;-72
2023/11/04 00:53:26;;;;;;;;;;;;;;;;;;5110423;28;20451;-72
2023/11/04 00:57:25;;;;;;;;;;;;;;;;;;5091358;27;19923;-72
2023/11/04 00:59:50;;;;;;;;;;;;;;;;;;5091423;28;20003;-72
2023/11/04 01:02:16;;;;;;;;;;;;;;;;;;5091525;28;19909;-72
2023/11/04 01:04:42;;;;;;;;;;;;;;;;;;5091103;28;19908;-72
2023/11/04 01:07:09;;;;;;;;;;;;;;;;;;5089991;28;19916;-72
2023/11/04 01:12:55;;;;;;;;;;;;;;;;;;5111371;27;19916;-72
2023/11/04 01:15:21;;;;;;;;;;;;;;;;;;5111679;28;19995;-72
2023/11/04 01:19:39;;;;;;;;;;;;;;;;;;5091167;28;19912;-72
2023/11/04 01:22:23;;;;;;;;;;;;;;;;;;5091776;27;19923;-72
2023/11/04 01:24:48;;;;;;;;;;;;;;;;;;5091421;28;20003;-72
2023/11/04 01:27:14;;;;;;;;;;;;;;;;;;5090948;28;19962;-72
2023/11/04 01:29:40;;;;;;;;;;;;;;;;;;5091277;28;19908;-72
2023/11/04 01:32:06;;;;;;;;;;;;;;;;;;5091106;28;19950;-72
2023/11/04 01:34:32;;;;;;;;;;;;;;;;;;5091511;28;19913;-72
2023/11/04 01:36:58;;;;;;;;;;;;;;;;;;5089753;28;19961;-72
2023/11/04 01:39:24;;;;;;;;;;;;;;;;;;5090765;28;19915;-72
2023/11/04 01:41:50;;;;;;;;;;;;;;;;;;5091078;28;19923;-72
2023/11/04 01:46:41;;;;;;;;;;;;;;;;;;5071212;28;19924;-72
2023/11/04 01:50:53;;;;;;;;;;;;;;;;;;5132747;27;20446;-72
2023/11/04 01:53:19;;;;;;;;;;;;;;;;;;5131819;28;19951;-72
2023/11/04 01:55:45;;;;;;;;;;;;;;;;;;5132202;28;19908;-72
2023/11/04 01:58:11;;;;;;;;;;;;;;;;;;5132173;28;19912;-72
2023/11/04 02:00:37;;;;;;;;;;;;;;;;;;5131740;28;19922;-72
2023/11/04 02:03:02;;;;;;;;;;;;;;;;;;5132063;28;19915;-72
2023/11/04 02:05:28;;;;;;;;;;;;;;;;;;5132699;28;19907;-72
2023/11/04 02:07:55;;;;;;;;;;;;;;;;;;5130286;28;19935;-72
2023/11/04 02:10:21;;;;;;;;;;;;;;;;;;5131863;27;19920;-72
2023/11/04 02:15:16;;;;;;;;;;;;;;;;;;5111767;27;20383;-72
2023/11/04 02:17:42;;;;;;;;;;;;;;;;;;5111735;28;20007;-72
2023/11/04 02:20:08;;;;;;;;;;;;;;;;;;5111698;28;19907;-72
2023/11/04 02:22:34;;;;;;;;;;;;;;;;;;5111298;28;19908;-72
2023/11/04 02:26:12;;;;;;;;;;;;;;;;;;5091779;27;19917;-72
2023/11/04 02:28:38;;;;;;;;;;;;;;;;;;5091248;28;19913;-72
2023/11/04 02:31:41;;;;;;;;;;;;;;;;;;5091888;27;19923;-72
2023/11/04 02:34:07;;;;;;;;;;;;;;;;;;5091386;28;19999;-72
2023/11/04 02:36:35;;;;;;;;;;;;;;;;;;5090943;28;19908;-72
2023/11/04 02:39:02;;;;;;;;;;;;;;;;;;5089993;28;19912;-72
2023/11/04 02:41:42;;;;;;;;;;;;;;;;;;5091785;27;19916;-72
2023/11/04 02:44:08;;;;;;;;;;;;;;;;;;5089752;28;19912;-72
2023/11/04 02:46:34;;;;;;;;;;;;;;;;;;5091331;28;20414;-72
2023/11/04 02:49:00;;;;;;;;;;;;;;;;;;5091252;28;20364;-72
2023/11/04 02:51:25;;;;;;;;;;;;;;;;;;5090933;28;20310;-72
2023/11/04 02:53:51;;;;;;;;;;;;;;;;;;5091261;28;19919;-72
2023/11/04 02:56:17;;;;;;;;;;;;;;;;;;5091411;28;20279;-73
2023/11/04 02:58:43;;;;;;;;;;;;;;;;;;5090741;28;19969;-73
2023/11/04 03:01:09;;;;;;;;;;;;;;;;;;5089673;28;19916;-73
2023/11/04 03:03:35;;;;;;;;;;;;;;;;;;5090758;28;20300;-73
2023/11/04 03:06:02;;;;;;;;;;;;;;;;;;5090854;28;19912;-73
2023/11/04 03:08:29;;;;;;;;;;;;;;;;;;5091474;28;20367;-73
2023/11/04 03:10:55;;;;;;;;;;;;;;;;;;5089188;28;19994;-72
2023/11/04 03:13:21;;;;;;;;;;;;;;;;;;5090840;28;19959;-72
2023/11/04 03:15:47;;;;;;;;;;;;;;;;;;5090808;28;19908;-72
2023/11/04 03:18:14;;;;;;;;;;;;;;;;;;5090310;28;19909;-72
2023/11/04 03:20:39;;;;;;;;;;;;;;;;;;5090625;28;20265;-73
2023/11/04 03:23:05;;;;;;;;;;;;;;;;;;5090947;28;19915;-72
2023/11/04 03:25:32;;;;;;;;;;;;;;;;;;5090198;28;19912;-73
2023/11/04 03:27:58;;;;;;;;;;;;;;;;;;5090574;28;20368;-75
2023/11/04 03:30:24;;;;;;;;;;;;;;;;;;5090496;28;19915;-74
2023/11/04 03:32:50;;;;;;;;;;;;;;;;;;5090334;28;20330;-74
2023/11/04 03:35:16;;;;;;;;;;;;;;;;;;5090736;28;19908;-74
2023/11/04 03:37:42;;;;;;;;;;;;;;;;;;5089129;28;20372;-72
2023/11/04 03:40:08;;;;;;;;;;;;;;;;;;5088299;28;20304;-72
2023/11/04 03:42:36;;;;;;;;;;;;;;;;;;5090454;28;20288;-72
2023/11/04 03:45:02;;;;;;;;;;;;;;;;;;5090150;28;20269;-73
2023/11/04 03:47:29;;;;;;;;;;;;;;;;;;5089941;28;19920;-73
2023/11/04 03:49:55;;;;;;;;;;;;;;;;;;5090191;28;19915;-74
2023/11/04 03:52:21;;;;;;;;;;;;;;;;;;5080514;28;20007;-74
2023/11/04 03:54:46;;;;;;;;;;;;;;;;;;5076215;28;19909;-74
2023/11/04 03:57:12;;;;;;;;;;;;;;;;;;5076505;28;19908;-74
2023/11/04 03:59:38;;;;;;;;;;;;;;;;;;5075992;28;19912;-74
2023/11/04 04:02:06;;;;;;;;;;;;;;;;;;5076740;28;19956;-74
2023/11/04 04:06:39;;;;;;;;;;;;;;;;;;5071009;28;19923;-73
2023/11/04 04:09:05;;;;;;;;;;;;;;;;;;5071401;28;19914;-72
2023/11/04 04:11:31;;;;;;;;;;;;;;;;;;5071372;28;19909;-73
2023/11/04 04:13:58;;;;;;;;;;;;;;;;;;5070872;28;19998;-72
2023/11/04 04:16:24;;;;;;;;;;;;;;;;;;5071039;28;20372;-72
2023/11/04 04:18:50;;;;;;;;;;;;;;;;;;5070974;28;19967;-72
2023/11/04 04:21:16;;;;;;;;;;;;;;;;;;5070542;28;20282;-72
2023/11/04 04:23:42;;;;;;;;;;;;;;;;;;5070847;28;19909;-72
2023/11/04 04:26:08;;;;;;;;;;;;;;;;;;5071095;28;19917;-72
2023/11/04 04:28:34;;;;;;;;;;;;;;;;;;5070369;28;19916;-72
2023/11/04 04:31:00;;;;;;;;;;;;;;;;;;5070906;28;19909;-72
2023/11/04 04:33:26;;;;;;;;;;;;;;;;;;5070778;28;20455;-72
2023/11/04 04:35:52;;;;;;;;;;;;;;;;;;5070331;28;20011;-73
2023/11/04 04:38:18;;;;;;;;;;;;;;;;;;5069348;28;19999;-73
2023/11/04 04:40:44;;;;;;;;;;;;;;;;;;5070559;28;19952;-73
2023/11/04 04:43:10;;;;;;;;;;;;;;;;;;5070093;28;19913;-72
2023/11/04 04:45:36;;;;;;;;;;;;;;;;;;5070388;28;20331;-73
2023/11/04 04:48:02;;;;;;;;;;;;;;;;;;5069129;28;19958;-72
2023/11/04 04:50:28;;;;;;;;;;;;;;;;;;5070042;28;20007;-72
2023/11/04 04:52:55;;;;;;;;;;;;;;;;;;5070324;28;19909;-72
2023/11/04 04:55:21;;;;;;;;;;;;;;;;;;5068950;28;19909;-72
2023/11/04 04:57:47;;;;;;;;;;;;;;;;;;5069847;28;19909;-72
2023/11/04 05:00:13;;;;;;;;;;;;;;;;;;5070675;28;19999;-72
2023/11/04 05:02:39;;;;;;;;;;;;;;;;;;5070122;28;19913;-72
2023/11/04 05:05:05;;;;;;;;;;;;;;;;;;5076963;28;19921;-72
2023/11/04 05:07:31;;;;;;;;;;;;;;;;;;5090197;28;19923;-72
2023/11/04 05:09:58;;;;;;;;;;;;;;;;;;5089890;28;19908;-72
2023/11/04 05:12:24;;;;;;;;;;;;;;;;;;5090026;28;19931;-72
2023/11/04 05:14:50;;;;;;;;;;;;;;;;;;5090079;28;19912;-72
2023/11/04 05:17:17;;;;;;;;;;;;;;;;;;5062145;28;19908;-72
2023/11/04 05:19:43;;;;;;;;;;;;;;;;;;5076540;28;19908;-72
2023/11/04 05:22:09;;;;;;;;;;;;;;;;;;5076460;28;20276;-72
2023/11/04 05:24:35;;;;;;;;;;;;;;;;;;5076364;28;20292;-72
2023/11/04 05:27:01;;;;;;;;;;;;;;;;;;5076350;28;19916;-72
2023/11/04 05:29:27;;;;;;;;;;;;;;;;;;5076416;28;19915;-72
2023/11/04 05:31:53;;;;;;;;;;;;;;;;;;5057957;28;19909;-72
2023/11/04 05:34:19;;;;;;;;;;;;;;;;;;5058197;28;19913;-73
2023/11/04 05:36:45;;;;;;;;;;;;;;;;;;5076418;28;19916;-72
2023/11/04 05:39:12;;;;;;;;;;;;;;;;;;5075850;28;19908;-73
2023/11/04 05:41:37;;;;;;;;;;;;;;;;;;5076491;28;19909;-73
2023/11/04 05:44:03;;;;;;;;;;;;;;;;;;5076041;28;19908;-73
2023/11/04 05:46:29;;;;;;;;;;;;;;;;;;5075680;28;19920;-73
2023/11/04 05:48:55;;;;;;;;;;;;;;;;;;5076160;28;19970;-73
2023/11/04 05:51:21;;;;;;;;;;;;;;;;;;5075803;28;19908;-73
2023/11/04 05:53:47;;;;;;;;;;;;;;;;;;5075497;28;19909;-73
2023/11/04 05:56:13;;;;;;;;;;;;;;;;;;5076161;28;19909;-73
2023/11/04 05:58:39;;;;;;;;;;;;;;;;;;5075801;28;19958;-73
2023/11/04 06:01:05;;;;;;;;;;;;;;;;;;5075385;28;19908;-73
2023/11/04 06:03:31;;;;;;;;;;;;;;;;;;5075714;28;19947;-73
2023/11/04 06:05:58;;;;;;;;;;;;;;;;;;5075421;28;20368;-73
2023/11/04 06:08:24;;;;;;;;;;;;;;;;;;5075334;28;20428;-72
2023/11/04 06:10:50;;;;;;;;;;;;;;;;;;5075664;28;19931;-72
2023/11/04 06:13:16;;;;;;;;;;;;;;;;;;5075138;28;20368;-72
2023/11/04 06:15:42;;;;;;;;;;;;;;;;;;5075886;28;19908;-72
2023/11/04 06:18:08;;;;;;;;;;;;;;;;;;5075666;28;20307;-72
2023/11/04 06:20:34;;;;;;;;;;;;;;;;;;5075085;28;20234;-72
2023/11/04 06:23:00;;;;;;;;;;;;;;;;;;5075359;28;19908;-72
2023/11/04 06:25:26;;;;;;;;;;;;;;;;;;5075223;28;19927;-73
2023/11/04 06:27:52;;;;;;;;;;;;;;;;;;5074346;28;19993;-73
2023/11/04 06:30:18;;;;;;;;;;;;;;;;;;5075399;28;20410;-73
2023/11/04 06:32:44;;;;;;;;;;;;;;;;;;5075263;28;19915;-72
2023/11/04 06:35:10;;;;;;;;;;;;;;;;;;5056768;28;20437;-72
2023/11/04 06:37:37;;;;;;;;;;;;;;;;;;5075053;28;19915;-73
2023/11/04 06:40:05;;;;;;;;;;;;;;;;;;5074988;28;19916;-73
2023/11/04 06:42:32;;;;;;;;;;;;;;;;;;5074539;28;19908;-73
2023/11/04 06:44:58;;;;;;;;;;;;;;;;;;5074679;28;19923;-74
2023/11/04 06:47:24;;;;;;;;;;;;;;;;;;5056911;28;19909;-73
2023/11/04 06:49:50;;;;;;;;;;;;;;;;;;5074346;28;19965;-73
2023/11/04 06:52:16;;;;;;;;;;;;;;;;;;5074722;28;19999;-73
2023/11/04 06:54:42;;;;;;;;;;;;;;;;;;5074804;28;20256;-73
2023/11/04 06:57:08;;;;;;;;;;;;;;;;;;5074413;28;20050;-74
2023/11/04 06:59:36;;;;;;;;;;;;;;;;;;5074636;28;19909;-74
2023/11/04 07:02:04;;;;;;;;;;;;;;;;;;5074601;28;19909;-74
2023/11/04 07:04:30;;;;;;;;;;;;;;;;;;5073968;28;19991;-74
2023/11/04 07:06:56;;;;;;;;;;;;;;;;;;5074595;28;20029;-74
2023/11/04 07:09:22;;;;;;;;;;;;;;;;;;5074393;28;19954;-74
2023/11/04 07:11:48;;;;;;;;;;;;;;;;;;5074042;28;19909;-74
2023/11/04 07:14:16;;;;;;;;;;;;;;;;;;5056355;28;19915;-73
2023/11/04 07:16:42;;;;;;;;;;;;;;;;;;5073867;28;19966;-73
2023/11/04 07:19:09;;;;;;;;;;;;;;;;;;5056319;28;20372;-73
2023/11/04 07:21:37;;;;;;;;;;;;;;;;;;5074219;28;19954;-74
2023/11/04 07:24:03;;;;;;;;;;;;;;;;;;5074121;28;19909;-74
2023/11/04 07:26:29;;;;;;;;;;;;;;;;;;5074093;28;20377;-74
2023/11/04 07:28:55;;;;;;;;;;;;;;;;;;5074135;28;19930;-74
2023/11/04 07:31:22;;;;;;;;;;;;;;;;;;5073980;28;19908;-74
2023/11/04 07:33:48;;;;;;;;;;;;;;;;;;5074047;28;19908;-74
2023/11/04 07:36:14;;;;;;;;;;;;;;;;;;5074098;28;19908;-73
2023/11/04 07:38:40;;;;;;;;;;;;;;;;;;5073548;28;19908;-73
2023/11/04 07:41:07;;;;;;;;;;;;;;;;;;5074037;28;19930;-74
2023/11/04 07:43:33;;;;;;;;;;;;;;;;;;5073919;28;19914;-73
2023/11/04 07:45:59;;;;;;;;;;;;;;;;;;5073616;28;20307;-73
2023/11/04 07:48:25;;;;;;;;;;;;;;;;;;5073899;28;20338;-73
2023/11/04 07:50:51;;;;;;;;;;;;;;;;;;5074088;28;19908;-74
2023/11/04 07:53:17;;;;;;;;;;;;;;;;;;5073336;28;19916;-74
2023/11/04 07:55:43;;;;;;;;;;;;;;;;;;5073859;28;19915;-73
2023/11/04 07:58:09;;;;;;;;;;;;;;;;;;5073983;28;19916;-74
2023/11/04 08:00:35;;;;;;;;;;;;;;;;;;5073342;28;19909;-74
2023/11/04 08:03:01;;;;;;;;;;;;;;;;;;5073972;28;20328;-74
2023/11/04 08:05:27;;;;;;;;;;;;;;;;;;5073475;28;19924;-74
2023/11/04 08:07:53;;;;;;;;;;;;;;;;;;5055429;28;20329;-74
2023/11/04 08:10:19;;;;;;;;;;;;;;;;;;5073838;28;20011;-73
2023/11/04 08:12:45;;;;;;;;;;;;;;;;;;5055493;28;19948;-73
2023/11/04 08:15:12;;;;;;;;;;;;;;;;;;5073437;28;19908;-73
2023/11/04 08:17:38;;;;;;;;;;;;;;;;;;5055580;28;19916;-74
2023/11/04 08:20:08;;;;;;;;;;;;;;;;;;5055152;28;20311;-73
2023/11/04 08:22:34;;;;;;;;;;;;;;;;;;5055517;28;19955;-74
2023/11/04 08:25:00;;;;;;;;;;;;;;;;;;5073412;28;19920;-74
2023/11/04 08:27:26;;;;;;;;;;;;;;;;;;5073103;28;19935;-74
2023/11/04 08:29:52;;;;;;;;;;;;;;;;;;5073451;28;19908;-73
2023/11/04 08:32:18;;;;;;;;;;;;;;;;;;5073352;28;19962;-73
2023/11/04 08:34:44;;;;;;;;;;;;;;;;;;5054971;28;19909;-74
2023/11/04 08:37:10;;;;;;;;;;;;;;;;;;5073335;28;20008;-74
2023/11/04 08:39:36;;;;;;;;;;;;;;;;;;5073198;28;19935;-74
2023/11/04 08:42:03;;;;;;;;;;;;;;;;;;5072813;28;19908;-74
2023/11/04 08:44:29;;;;;;;;;;;;;;;;;;5073132;28;20372;-74
2023/11/04 08:46:56;;;;;;;;;;;;;;;;;;5073237;28;19912;-74
2023/11/04 08:49:22;;;;;;;;;;;;;;;;;;5072869;28;19917;-74
2023/11/04 08:51:47;;;;;;;;;;;;;;;;;;5074292;28;19909;-74
2023/11/04 08:54:14;;;;;;;;;;;;;;;;;;5076962;28;19909;-74
2023/11/04 08:56:40;;;;;;;;;;;;;;;;;;5076451;28;19918;-74
2023/11/04 08:59:06;;;;;;;;;;;;;;;;;;5076905;28;20352;-74
2023/11/04 09:01:32;;;;;;;;;;;;;;;;;;5076795;28;20338;-73
2023/11/04 09:03:57;;;;;;;;;;;;;;;;;;5076304;28;19955;-72
2023/11/04 09:06:23;;;;;;;;;;;;;;;;;;5076409;28;19924;-73
2023/11/04 09:08:49;;;;;;;;;;;;;;;;;;5076729;28;19999;-72
2023/11/04 09:11:16;;;;;;;;;;;;;;;;;;5076202;28;19912;-72
2023/11/04 09:13:42;;;;;;;;;;;;;;;;;;5076593;28;19915;-73
2023/11/04 09:16:09;;;;;;;;;;;;;;;;;;5076304;28;19908;-75
2023/11/04 09:18:37;;;;;;;;;;;;;;;;;;5076610;28;20348;-73
2023/11/04 09:21:03;;;;;;;;;;;;;;;;;;5076871;28;20385;-73
2023/11/04 09:23:29;;;;;;;;;;;;;;;;;;5076097;28;19916;-73
2023/11/04 09:25:55;;;;;;;;;;;;;;;;;;5076274;28;19917;-75
2023/11/04 09:28:22;;;;;;;;;;;;;;;;;;5076303;28;19915;-75
2023/11/04 09:30:49;;;;;;;;;;;;;;;;;;5075975;28;20393;-74
2023/11/04 09:33:15;;;;;;;;;;;;;;;;;;5076353;28;19916;-74
2023/11/04 09:35:41;;;;;;;;;;;;;;;;;;5076241;28;19913;-74
2023/11/04 09:38:07;;;;;;;;;;;;;;;;;;5075785;28;20470;-74
2023/11/04 09:40:33;;;;;;;;;;;;;;;;;;5076573;28;19912;-74
2023/11/04 09:42:59;;;;;;;;;;;;;;;;;;5076157;28;19908;-73
2023/11/04 09:45:25;;;;;;;;;;;;;;;;;;5075806;28;20380;-73
2023/11/04 09:47:51;;;;;;;;;;;;;;;;;;5076088;28;20280;-74
2023/11/04 09:50:16;;;;;;;;;;;;;;;;;;5075890;28;19940;-73
2023/11/04 09:52:42;;;;;;;;;;;;;;;;;;5075404;28;19908;-74
2023/11/04 09:55:08;;;;;;;;;;;;;;;;;;5075815;28;19909;-74
2023/11/04 09:57:36;;;;;;;;;;;;;;;;;;5075826;28;19970;-74
2023/11/04 10:00:03;;;;;;;;;;;;;;;;;;5075352;28;20047;-74
2023/11/04 10:02:29;;;;;;;;;;;;;;;;;;5075527;28;20395;-75
2023/11/04 10:04:55;;;;;;;;;;;;;;;;;;5075455;28;19946;-75
2023/11/04 10:07:21;;;;;;;;;;;;;;;;;;5057347;28;19908;-74
2023/11/04 10:09:48;;;;;;;;;;;;;;;;;;5076104;28;19916;-75
2023/11/04 10:12:14;;;;;;;;;;;;;;;;;;5057512;28;19932;-74
2023/11/04 10:14:40;;;;;;;;;;;;;;;;;;5075031;28;20360;-74
2023/11/04 10:17:06;;;;;;;;;;;;;;;;;;5075416;28;20391;-73
2023/11/04 10:19:32;;;;;;;;;;;;;;;;;;5074870;28;19977;-74
2023/11/04 10:21:58;;;;;;;;;;;;;;;;;;5075341;28;19909;-74
2023/11/04 10:24:24;;;;;;;;;;;;;;;;;;5075479;28;19915;-73
2023/11/04 10:26:50;;;;;;;;;;;;;;;;;;5074870;28;19913;-73
2023/11/04 10:29:16;;;;;;;;;;;;;;;;;;5075168;28;20348;-73
2023/11/04 10:31:42;;;;;;;;;;;;;;;;;;5075314;28;19916;-72
2023/11/04 10:34:09;;;;;;;;;;;;;;;;;;5074633;28;19908;-73
2023/11/04 10:36:35;;;;;;;;;;;;;;;;;;5075028;28;19916;-74
2023/11/04 10:39:24;;;;;;;;;;;;;;;;;;5092173;27;19920;-75
2023/11/04 10:41:50;;;;;;;;;;;;;;;;;;5089746;28;19947;-73
2023/11/04 10:44:16;;;;;;;;;;;;;;;;;;5091229;28;20359;-74
2023/11/04 10:47:50;;;;;;;;;;;;;;;;;;4969167;28;19925;-73
2023/11/04 10:50:16;;;;;;;;;;;;;;;;;;4969185;28;20005;-73
2023/11/04 10:52:42;;;;;;;;;;;;;;;;;;4969062;28;19911;-73
2023/11/04 10:55:08;;;;;;;;;;;;;;;;;;4968722;28;19964;-73
2023/11/04 10:57:34;;;;;;;;;;;;;;;;;;4969044;28;19910;-73
2023/11/04 11:00:00;;;;;;;;;;;;;;;;;;4968935;28;20028;-73
2023/11/04 11:04:51;;;;;;;;;;;;;;;;;;5112030;27;20299;-74
2023/11/04 11:07:17;;;;;;;;;;;;;;;;;;5112020;28;20027;-73
2023/11/04 11:11:57;;;;;;;;;;;;;;;;;;5071351;27;19912;-73
2023/11/04 11:14:23;;;;;;;;;;;;;;;;;;5071124;28;20007;-73
2023/11/04 11:16:50;;;;;;;;;;;;;;;;;;5070681;28;19912;-73
2023/11/04 11:19:16;;;;;;;;;;;;;;;;;;5069767;28;20000;-73
2023/11/04 11:25:11;;;;;;;;;;;;;;;;;;5132878;27;19922;-74
2023/11/04 11:29:33;;;;;;;;;;;;;;;;;;5111982;27;19916;-74
2023/11/04 11:31:58;;;;;;;;;;;;;;;;;;5111340;28;19912;-74
2023/11/04 11:34:24;;;;;;;;;;;;;;;;;;5111557;28;19923;-73
2023/11/04 11:36:51;;;;;;;;;;;;;;;;;;5111184;28;19995;-74
2023/11/04 11:43:48;;;;;;;;;;;;;;;;;;5091699;28;19923;-73
2023/11/04 11:49:19;;;;;;;;;;;;;;;;;;5112233;27;19916;-73
2023/11/04 11:52:33;;;;;;;;;;;;;;;;;;5070726;28;19916;-73
2023/11/04 11:55:00;;;;;;;;;;;;;;;;;;5071105;28;20433;-73
2023/11/04 11:57:27;;;;;;;;;;;;;;;;;;5071102;28;20315;-75
2023/11/04 12:09:38;;;;;;;;;;;;;;;;;;5091500;27;19916;-73
2023/11/04 12:14:05;;;;;;;;;;;;;;;;;;5090877;27;19919;-72
2023/11/04 12:16:31;;;;;;;;;;;;;;;;;;5089862;28;19959;-73
2023/11/04 12:18:57;;;;;;;;;;;;;;;;;;5090813;28;20311;-73
2023/11/04 12:21:23;;;;;;;;;;;;;;;;;;5091171;28;20268;-73
2023/11/04 12:23:49;;;;;;;;;;;;;;;;;;5091144;28;20284;-74
2023/11/04 12:26:15;;;;;;;;;;;;;;;;;;5090812;28;19916;-75
2023/11/04 12:28:41;;;;;;;;;;;;;;;;;;5091412;28;19954;-74
2023/11/04 12:31:07;;;;;;;;;;;;;;;;;;5091027;28;19912;-74
2023/11/04 12:33:33;;;;;;;;;;;;;;;;;;5089251;28;19970;-74
2023/11/04 12:41:15;;;;;;;;;;;;;;;;;;5091217;27;19942;-76
2023/11/04 12:46:53;;;;;;;;;;;;;;;;;;5091779;27;19919;-74
2023/11/04 12:52:27;;;;;;;;;;;;;;;;;;5112271;27;19916;-73
2023/11/04 12:57:38;;;;;;;;;;;;;;;;;;5112465;27;19912;-74
2023/11/04 13:00:57;;;;;;;;;;;;;;;;;;5091643;27;19919;-75
2023/11/04 13:05:55;;;;;;;;;;;;;;;;;;5111848;27;19922;-72
2023/11/04 13:08:21;;;;;;;;;;;;;;;;;;5111366;28;20006;-73
2023/11/04 13:16:10;;;;;;;;;;;;;;;;;;5091436;27;19923;-72
2023/11/04 13:18:36;;;;;;;;;;;;;;;;;;5091511;28;19919;-72
2023/11/04 13:21:13;;;;;;;;;;;;;;;;;;5091427;27;19922;-73
2023/11/04 13:23:39;;;;;;;;;;;;;;;;;;5089598;28;19913;-73
2023/11/04 13:26:05;;;;;;;;;;;;;;;;;;5090031;28;19954;-74
2023/11/04 13:28:31;;;;;;;;;;;;;;;;;;5091298;28;20306;-75
2023/11/04 13:31:27;;;;;;;;;;;;;;;;;;5091063;28;19916;-73
2023/11/04 13:33:53;;;;;;;;;;;;;;;;;;5091676;28;19995;-74
2023/11/04 13:36:18;;;;;;;;;;;;;;;;;;5090893;28;19954;-74
2023/11/04 13:38:44;;;;;;;;;;;;;;;;;;5089997;28;19909;-73
2023/11/04 13:41:10;;;;;;;;;;;;;;;;;;5091122;28;19995;-72
2023/11/04 13:43:36;;;;;;;;;;;;;;;;;;5090736;28;20390;-74
2023/11/04 13:46:03;;;;;;;;;;;;;;;;;;5091149;28;19909;-74
2023/11/04 13:48:29;;;;;;;;;;;;;;;;;;5091067;28;19908;-74
2023/11/04 13:50:55;;;;;;;;;;;;;;;;;;5090576;28;19924;-73
2023/11/04 13:53:21;;;;;;;;;;;;;;;;;;5091066;28;19908;-74
2023/11/04 13:55:48;;;;;;;;;;;;;;;;;;5090879;28;19916;-73
2023/11/04 13:58:14;;;;;;;;;;;;;;;;;;5090475;28;19920;-73
2023/11/04 14:00:40;;;;;;;;;;;;;;;;;;5089546;28;19908;-73
2023/11/04 14:03:06;;;;;;;;;;;;;;;;;;5090791;28;19999;-74
2023/11/04 14:05:32;;;;;;;;;;;;;;;;;;5090515;28;19908;-74
2023/11/04 14:07:58;;;;;;;;;;;;;;;;;;5091118;28;19908;-74
2023/11/04 14:10:24;;;;;;;;;;;;;;;;;;5089352;28;19916;-73
2023/11/04 14:12:49;;;;;;;;;;;;;;;;;;5089007;28;19944;-73
2023/11/04 14:15:15;;;;;;;;;;;;;;;;;;5090533;28;19950;-73
2023/11/04 14:17:41;;;;;;;;;;;;;;;;;;5090591;28;19999;-73
2023/11/04 14:20:07;;;;;;;;;;;;;;;;;;5089126;28;19916;-73
2023/11/04 14:22:34;;;;;;;;;;;;;;;;;;5090728;28;19916;-74
2023/11/04 14:25:00;;;;;;;;;;;;;;;;;;5090384;28;19908;-73
2023/11/04 14:27:26;;;;;;;;;;;;;;;;;;5089903;28;19947;-74
2023/11/04 14:29:53;;;;;;;;;;;;;;;;;;5097688;28;19920;-74
2023/11/04 14:32:19;;;;;;;;;;;;;;;;;;5110492;28;19908;-73
2023/11/04 14:34:46;;;;;;;;;;;;;;;;;;5110383;28;20409;-74
2023/11/04 14:37:12;;;;;;;;;;;;;;;;;;5110575;28;19968;-74
2023/11/04 14:39:39;;;;;;;;;;;;;;;;;;5110138;28;19934;-73
2023/11/04 14:42:05;;;;;;;;;;;;;;;;;;5100787;28;19914;-73
2023/11/04 14:44:31;;;;;;;;;;;;;;;;;;5096858;28;20007;-72
2023/11/04 14:46:57;;;;;;;;;;;;;;;;;;5096415;28;19908;-73
2023/11/04 14:49:23;;;;;;;;;;;;;;;;;;5096739;28;19918;-73
2023/11/04 14:51:49;;;;;;;;;;;;;;;;;;5096765;28;19912;-73
2023/11/04 14:54:15;;;;;;;;;;;;;;;;;;5096365;28;19942;-74
2023/11/04 14:56:42;;;;;;;;;;;;;;;;;;5078471;28;19908;-73
2023/11/04 14:59:08;;;;;;;;;;;;;;;;;;5096767;28;20322;-73
2023/11/04 15:01:34;;;;;;;;;;;;;;;;;;5096348;28;19912;-73
2023/11/04 15:04:00;;;;;;;;;;;;;;;;;;5096465;28;19931;-73
2023/11/04 15:06:26;;;;;;;;;;;;;;;;;;5078156;28;19912;-75
2023/11/04 15:08:52;;;;;;;;;;;;;;;;;;5095955;28;19916;-75
2023/11/04 15:11:18;;;;;;;;;;;;;;;;;;5096203;28;19916;-74
2023/11/04 15:13:44;;;;;;;;;;;;;;;;;;5096190;28;20418;-74
2023/11/04 15:16:10;;;;;;;;;;;;;;;;;;5095989;28;19915;-74
2023/11/04 15:18:36;;;;;;;;;;;;;;;;;;5096172;28;19912;-74
2023/11/04 15:21:02;;;;;;;;;;;;;;;;;;5096099;28;20375;-73
2023/11/04 15:23:28;;;;;;;;;;;;;;;;;;5095646;28;19908;-73
2023/11/04 15:25:54;;;;;;;;;;;;;;;;;;5077811;28;20322;-74
2023/11/04 15:28:20;;;;;;;;;;;;;;;;;;5077805;28;20345;-74
2023/11/04 15:30:46;;;;;;;;;;;;;;;;;;5095321;28;19943;-74
2023/11/04 15:33:12;;;;;;;;;;;;;;;;;;5095911;28;19912;-74
2023/11/04 15:35:38;;;;;;;;;;;;;;;;;;5077585;28;20402;-74
2023/11/04 15:38:04;;;;;;;;;;;;;;;;;;5095510;28;19908;-74
2023/11/04 15:40:30;;;;;;;;;;;;;;;;;;5095744;28;19915;-74
2023/11/04 15:42:56;;;;;;;;;;;;;;;;;;5095292;28;19912;-74
2023/11/04 15:45:22;;;;;;;;;;;;;;;;;;5095653;28;19908;-74
2023/11/04 15:47:48;;;;;;;;;;;;;;;;;;5077508;28;19908;-74
2023/11/04 15:50:14;;;;;;;;;;;;;;;;;;5095166;28;20013;-74
2023/11/04 15:52:40;;;;;;;;;;;;;;;;;;5094920;28;19953;-74
2023/11/04 15:55:06;;;;;;;;;;;;;;;;;;5095458;28;19912;-74
2023/11/04 15:57:33;;;;;;;;;;;;;;;;;;5095070;28;19947;-74
2023/11/04 15:59:59;;;;;;;;;;;;;;;;;;5095297;28;20419;-74
2023/11/04 16:02:25;;;;;;;;;;;;;;;;;;5095376;28;19947;-74
2023/11/04 16:04:51;;;;;;;;;;;;;;;;;;5094814;28;19908;-74
2023/11/04 16:07:17;;;;;;;;;;;;;;;;;;5094944;28;19912;-74
2023/11/04 16:09:43;;;;;;;;;;;;;;;;;;5095106;28;19916;-74
2023/11/04 16:12:09;;;;;;;;;;;;;;;;;;5094788;28;19915;-74
2023/11/04 16:14:35;;;;;;;;;;;;;;;;;;5076896;28;19951;-74
2023/11/04 16:17:01;;;;;;;;;;;;;;;;;;5094959;28;19937;-74
2023/11/04 16:19:27;;;;;;;;;;;;;;;;;;5094744;28;20394;-74
2023/11/04 16:21:53;;;;;;;;;;;;;;;;;;5094813;28;19915;-73
2023/11/04 16:24:19;;;;;;;;;;;;;;;;;;5094839;28;19911;-73
2023/11/04 16:26:45;;;;;;;;;;;;;;;;;;5094733;28;20307;-73
2023/11/04 16:29:11;;;;;;;;;;;;;;;;;;5094478;28;19908;-73
2023/11/04 16:31:37;;;;;;;;;;;;;;;;;;5094775;28;19931;-74
2023/11/04 16:34:03;;;;;;;;;;;;;;;;;;5076094;28;19908;-74
2023/11/04 16:36:30;;;;;;;;;;;;;;;;;;5094592;28;19930;-74
2023/11/04 16:38:56;;;;;;;;;;;;;;;;;;5094719;28;19908;-74
2023/11/04 16:41:22;;;;;;;;;;;;;;;;;;5094252;28;19985;-74
2023/11/04 16:43:48;;;;;;;;;;;;;;;;;;5095020;28;19969;-74
2023/11/04 16:46:14;;;;;;;;;;;;;;;;;;5094338;28;19919;-74
2023/11/04 16:48:40;;;;;;;;;;;;;;;;;;5094509;28;19908;-74
2023/11/04 16:51:06;;;;;;;;;;;;;;;;;;5094271;28;19923;-74
2023/11/04 16:53:32;;;;;;;;;;;;;;;;;;5094014;28;19951;-74
2023/11/04 16:55:58;;;;;;;;;;;;;;;;;;5094312;28;19962;-73
2023/11/04 16:58:24;;;;;;;;;;;;;;;;;;5076234;28;20003;-74
2023/11/04 17:00:50;;;;;;;;;;;;;;;;;;5093925;28;19977;-74
2023/11/04 17:03:16;;;;;;;;;;;;;;;;;;5094331;28;19969;-74
2023/11/04 17:05:42;;;;;;;;;;;;;;;;;;5094224;28;19908;-74
2023/11/04 17:08:08;;;;;;;;;;;;;;;;;;5093806;28;20004;-74
2023/11/04 17:10:34;;;;;;;;;;;;;;;;;;5094235;28;20356;-74
2023/11/04 17:13:01;;;;;;;;;;;;;;;;;;5075961;28;19915;-74
2023/11/04 17:15:27;;;;;;;;;;;;;;;;;;5093734;28;19912;-74
2023/11/04 17:17:53;;;;;;;;;;;;;;;;;;5094165;28;20317;-73
2023/11/04 17:20:19;;;;;;;;;;;;;;;;;;5093876;28;20416;-73
2023/11/04 17:22:44;;;;;;;;;;;;;;;;;;5093443;28;20344;-74
2023/11/04 17:25:10;;;;;;;;;;;;;;;;;;5094454;28;20347;-72
2023/11/04 17:27:37;;;;;;;;;;;;;;;;;;5093866;28;19998;-73
2023/11/04 17:30:03;;;;;;;;;;;;;;;;;;5093109;28;19967;-73
2023/11/04 17:32:29;;;;;;;;;;;;;;;;;;5093978;28;19908;-73
2023/11/04 17:34:55;;;;;;;;;;;;;;;;;;5093805;28;19951;-73
2023/11/04 17:37:22;;;;;;;;;;;;;;;;;;5093405;28;20378;-73
2023/11/04 17:39:50;;;;;;;;;;;;;;;;;;5075737;28;19943;-73
2023/11/04 17:42:16;;;;;;;;;;;;;;;;;;5093786;28;19999;-73
2023/11/04 17:44:44;;;;;;;;;;;;;;;;;;5093416;28;19959;-72
2023/11/04 17:47:10;;;;;;;;;;;;;;;;;;5075879;28;19915;-73
2023/11/04 17:49:39;;;;;;;;;;;;;;;;;;5093494;28;19920;-73
2023/11/04 17:52:05;;;;;;;;;;;;;;;;;;5075575;28;20332;-73
2023/11/04 17:54:31;;;;;;;;;;;;;;;;;;5093610;28;19951;-73
2023/11/04 17:56:58;;;;;;;;;;;;;;;;;;5093211;28;19908;-73
2023/11/04 17:59:26;;;;;;;;;;;;;;;;;;5093627;28;19919;-73
2023/11/04 18:01:52;;;;;;;;;;;;;;;;;;5093543;28;20310;-73